Portada
METAR-TAF:

METAR-TAF

Aeroports :

Narrandera, Austràlia

latitud: 34-42-08S, longitud: 146-30-44E, altitud: 144 m

Observació

L'informe es va fer fa 25 minuts, a les 23:30 UTC
Vent 13 kt del Nord
Temperatura 19°C
Humitat 100%
Pressió 1011 hPa
Visibilitat 10 km o més
Núvols disperses a una alçada de 1100 ft
Cel cobert a una alçada de 1600 ft
Cel cobert a una alçada de 2000 ft
xàfecs de pluja

METAR: YNAR 012330Z AUTO 35013KT 9999 SHRA SCT011 OVC016 OVC020 19/19 Q1011

Hora: 10:55 (23:55 UTC)


TAF: manca

Observacions i pronòstics meteorològics de més de 4000 aeroports (METAR i TAF).

Les estacions disponibles són els punts grocs i vermells al mapa.

Posi el ratolí al punt desitjat per veure el nom de l'estació.

Feu clic per veure les observacions i els pronòstics meteorològics.

Per canviar el mapa: feu clic els botons verds amb una creu de color negre per apropar; al botó verd amb un guió per allunyar la imatge; o en les fletxes verdes per a mapes adjacents.


METAR-TAF: